createdAt,value
2018-08-20T00:01:02.792Z,100831.38
2018-08-20T00:02:38.589Z,100821.66
2018-08-20T00:04:14.031Z,100784.95
2018-08-20T00:05:53.569Z,100707.56
2018-08-20T00:07:28.803Z,100633.63
2018-08-20T00:09:08.008Z,100673.80
2018-08-20T00:10:43.406Z,100671.08
2018-08-20T00:12:20.553Z,100631.48
2018-08-20T00:13:57.458Z,100662.27
2018-08-20T00:15:33.401Z,100714.02
2018-08-20T00:17:09.937Z,100684.98
2018-08-20T00:18:48.595Z,100689.80
2018-08-20T00:20:24.238Z,100548.65
2018-08-20T00:22:00.183Z,100614.13
2018-08-20T00:23:36.042Z,100631.11
2018-08-20T00:25:17.847Z,100633.83
2018-08-20T00:26:53.359Z,100653.33
2018-08-20T00:28:29.081Z,100663.14
2018-08-20T00:30:16.679Z,100633.73
2018-08-20T00:31:53.268Z,100591.42
2018-08-20T00:33:30.165Z,100521.87
2018-08-20T00:35:06.483Z,100461.10
2018-08-20T00:36:42.455Z,100431.23
2018-08-20T00:38:20.007Z,100364.84
2018-08-20T00:39:55.857Z,100252.62
2018-08-20T00:41:34.865Z,100187.63
2018-08-20T00:43:10.617Z,100171.67
2018-08-20T00:44:46.506Z,100152.47
2018-08-20T00:46:22.121Z,100151.61
2018-08-20T00:47:58.390Z,100148.54
2018-08-20T00:49:33.816Z,100136.14
2018-08-20T00:51:12.228Z,100131.95
2018-08-20T00:52:47.519Z,100123.17
2018-08-20T00:54:23.861Z,100148.54
2018-08-20T00:55:59.893Z,100140.98
2018-08-20T00:57:35.286Z,100125.03
2018-08-20T00:59:11.768Z,100106.32
2018-08-20T01:00:47.743Z,100028.08
2018-08-20T01:02:26.431Z,100025.84
2018-08-20T01:04:02.448Z,100035.70
2018-08-20T01:05:38.462Z,100021.01
2018-08-20T01:07:15.713Z,100056.63
2018-08-20T01:08:51.065Z,100087.66
2018-08-20T01:10:26.717Z,100112.63
2018-08-20T01:12:03.140Z,100125.89
2018-08-20T01:13:38.446Z,100114.86
2018-08-20T01:15:20.135Z,100044.13
2018-08-20T01:16:56.174Z,100029.55
2018-08-20T01:18:31.495Z,100016.55
2018-08-20T01:20:07.126Z,100111.03
2018-08-20T01:21:43.212Z,100105.59
2018-08-20T01:23:18.516Z,100097.17
2018-08-20T01:24:53.843Z,100090.48
2018-08-20T01:26:29.120Z,100102.49
2018-08-20T01:28:04.779Z,100069.09
2018-08-20T01:29:40.083Z,100059.84
2018-08-20T01:31:15.866Z,100041.14
2018-08-20T01:32:51.365Z,100055.87
2018-08-20T01:34:27.194Z,100067.50
2018-08-20T01:36:02.615Z,100057.72
2018-08-20T01:37:38.019Z,100026.55
2018-08-20T01:39:13.819Z,100001.20
2018-08-20T01:40:49.465Z,99944.83
2018-08-20T01:42:25.369Z,99927.50
2018-08-20T01:44:00.594Z,99894.28
2018-08-20T01:45:36.339Z,99923.58
2018-08-20T01:47:11.764Z,99796.97
2018-08-20T01:48:47.642Z,99773.02
2018-08-20T01:50:23.099Z,99715.73
2018-08-20T01:51:58.651Z,99666.95
2018-08-20T01:53:35.277Z,99660.66
2018-08-20T01:55:10.511Z,99669.67
2018-08-20T01:56:46.050Z,99703.03
2018-08-20T01:58:23.654Z,99753.62
2018-08-20T01:59:59.388Z,99740.80
2018-08-20T02:01:35.046Z,99770.03
2018-08-20T02:03:10.723Z,99820.28
2018-08-20T02:04:46.141Z,99865.25
2018-08-20T02:06:22.512Z,99926.02
2018-08-20T02:07:58.420Z,99917.98
2018-08-20T02:09:34.360Z,99894.50
2018-08-20T02:11:09.661Z,99866.98
2018-08-20T02:12:44.969Z,99858.30
2018-08-20T02:14:20.233Z,99887.09
2018-08-20T02:15:57.929Z,99915.90
2018-08-20T02:17:33.328Z,99955.19
2018-08-20T02:19:11.030Z,99957.27
2018-08-20T02:20:46.425Z,99917.74
2018-08-20T02:22:21.685Z,99895.63
2018-08-20T02:23:57.306Z,99897.73
2018-08-20T02:25:32.748Z,99784.09
2018-08-20T02:27:08.631Z,99719.30
2018-08-20T02:28:44.670Z,99636.00
2018-08-20T02:30:20.149Z,99628.84
2018-08-20T02:31:55.755Z,99598.24
2018-08-20T02:33:31.299Z,99568.14
2018-08-20T02:35:07.434Z,99554.84
2018-08-20T02:36:43.202Z,99557.06
2018-08-20T02:38:19.189Z,99548.17
2018-08-20T02:39:54.459Z,99566.93
2018-08-20T02:41:30.528Z,99577.62
2018-08-20T02:43:06.531Z,99572.73
2018-08-20T02:44:41.730Z,99559.39
2018-08-20T02:46:17.606Z,99560.27
2018-08-20T02:47:53.081Z,99574.58
2018-08-20T02:49:28.598Z,99594.92
2018-08-20T02:51:04.322Z,99628.19
2018-08-20T02:52:39.636Z,99639.31
2018-08-20T02:54:15.062Z,99681.00
2018-08-20T02:55:50.543Z,99710.36
2018-08-20T02:57:26.216Z,99736.94
2018-08-20T02:59:01.642Z,99782.00
2018-08-20T03:00:38.121Z,99775.22
2018-08-20T03:02:13.430Z,99774.45
2018-08-20T03:03:49.945Z,99797.92
2018-08-20T03:05:26.412Z,99781.23
2018-08-20T03:07:02.088Z,99707.91
2018-08-20T03:08:37.400Z,99701.23
2018-08-20T03:10:13.825Z,99696.06
2018-08-20T03:11:49.072Z,99692.97
2018-08-20T03:13:24.277Z,99723.55
2018-08-20T03:14:59.747Z,99676.42
2018-08-20T03:16:36.279Z,99683.70
2018-08-20T03:18:12.093Z,99741.83
2018-08-20T03:19:48.830Z,99776.91
2018-08-20T03:21:24.466Z,99759.25
2018-08-20T03:23:01.519Z,99778.26
2018-08-20T03:24:38.079Z,99785.80
2018-08-20T03:26:13.678Z,99751.25
2018-08-20T03:27:49.539Z,99792.09
2018-08-20T03:29:25.183Z,99833.44
2018-08-20T03:31:04.538Z,99761.58
2018-08-20T03:32:41.079Z,99829.51
2018-08-20T03:34:16.687Z,99874.83
2018-08-20T03:35:54.494Z,99878.89
2018-08-20T03:37:31.675Z,99845.55
2018-08-20T03:39:09.829Z,99801.11
2018-08-20T03:40:45.082Z,99718.11
2018-08-20T03:42:21.478Z,99676.52
2018-08-20T03:43:57.189Z,99653.84
2018-08-20T03:45:32.694Z,99656.55
2018-08-20T03:47:08.013Z,99582.55
2018-08-20T03:48:44.128Z,99584.66
2018-08-20T03:50:20.485Z,99551.95
2018-08-20T03:51:56.634Z,99561.59
2018-08-20T03:53:32.310Z,99548.27
2018-08-20T03:55:07.598Z,99575.39
2018-08-20T03:56:44.146Z,99588.34
2018-08-20T03:58:19.973Z,99593.66
2018-08-20T03:59:56.196Z,99601.16
2018-08-20T04:01:31.729Z,99609.55
2018-08-20T04:03:07.361Z,99591.44
2018-08-20T04:04:45.537Z,99625.72
2018-08-20T04:06:22.537Z,99648.78
2018-08-20T04:07:57.770Z,99669.12
2018-08-20T04:09:33.445Z,99682.92
2018-08-20T04:11:10.528Z,99633.36
2018-08-20T04:12:46.263Z,99689.70
2018-08-20T04:14:21.761Z,99670.59
2018-08-20T04:15:58.825Z,99686.99
2018-08-20T04:17:35.082Z,99669.35
2018-08-20T04:19:10.526Z,99743.02
2018-08-20T04:20:48.703Z,99740.67
2018-08-20T04:22:24.071Z,99680.95
2018-08-20T04:23:59.373Z,99631.62
2018-08-20T04:25:34.934Z,99560.72
2018-08-20T04:27:10.258Z,99565.28
2018-08-20T04:28:46.435Z,99445.09
2018-08-20T04:30:23.490Z,99381.75
2018-08-20T04:31:59.273Z,99464.28
2018-08-20T04:33:35.931Z,99580.80
2018-08-20T04:35:11.165Z,99633.58
2018-08-20T04:36:46.952Z,99552.81
2018-08-20T04:38:23.634Z,99414.27
2018-08-20T04:39:58.917Z,99287.70
2018-08-20T04:41:34.195Z,99408.50
2018-08-20T04:43:10.358Z,99441.02
2018-08-20T04:44:47.922Z,99466.13
2018-08-20T04:46:25.261Z,99576.88
2018-08-20T04:48:00.680Z,99537.03
2018-08-20T04:49:36.398Z,99428.07
2018-08-20T04:51:11.880Z,99533.97
2018-08-20T04:52:49.283Z,99614.70
2018-08-20T04:54:24.595Z,99571.67
2018-08-20T04:56:08.414Z,99547.00
2018-08-20T04:57:44.774Z,99547.87
2018-08-20T04:59:20.950Z,99627.66
2018-08-20T05:00:57.107Z,99670.69
2018-08-20T05:02:32.734Z,99613.97
2018-08-20T05:04:08.464Z,99511.11
2018-08-20T05:05:44.517Z,99575.85
2018-08-20T05:07:20.652Z,99412.30
2018-08-20T05:08:55.875Z,99463.41
2018-08-20T05:10:31.134Z,99546.28
2018-08-20T05:12:07.347Z,99587.45
2018-08-20T05:13:43.885Z,99628.25
2018-08-20T05:15:19.519Z,99704.61
2018-08-20T05:16:55.774Z,99723.75
2018-08-20T05:18:32.030Z,99752.97
2018-08-20T05:20:08.316Z,99745.84
2018-08-20T05:21:44.524Z,99701.17
2018-08-20T05:23:19.734Z,99671.92
2018-08-20T05:24:59.583Z,99580.17
2018-08-20T05:26:35.032Z,99626.17
2018-08-20T05:28:12.816Z,99688.80
2018-08-20T05:29:48.179Z,99722.12
2018-08-20T05:31:23.980Z,99666.75
2018-08-20T05:33:00.297Z,99779.39
2018-08-20T05:34:36.613Z,99778.63
2018-08-20T05:36:18.293Z,99786.55
2018-08-20T05:37:59.215Z,99893.75
2018-08-20T05:39:41.592Z,99937.23
2018-08-20T05:41:25.127Z,99971.70
2018-08-20T05:43:00.753Z,100004.56
2018-08-20T05:44:36.021Z,99992.34
2018-08-20T05:46:11.961Z,99840.37
2018-08-20T05:47:47.623Z,99829.84
2018-08-20T05:49:23.106Z,99855.19
2018-08-20T05:50:58.363Z,99789.38
2018-08-20T05:52:34.193Z,99771.72
2018-08-20T05:54:10.383Z,99755.43
2018-08-20T05:55:46.237Z,99810.83
2018-08-20T05:57:23.119Z,99849.00
2018-08-20T05:59:01.151Z,99878.66
2018-08-20T06:00:38.293Z,99695.84
2018-08-20T06:02:15.979Z,99600.98
2018-08-20T06:03:53.422Z,99562.52
2018-08-20T06:05:29.197Z,99703.97
2018-08-20T06:07:08.570Z,99817.99
2018-08-20T06:08:45.261Z,99736.28
2018-08-20T06:10:21.351Z,99683.61
2018-08-20T06:11:57.286Z,99740.73
2018-08-20T06:13:34.903Z,99828.73
2018-08-20T06:15:15.645Z,99605.92
2018-08-20T06:16:55.246Z,99592.73
2018-08-20T06:18:31.703Z,99713.35
2018-08-20T06:20:10.535Z,99725.80
2018-08-20T06:21:55.973Z,99784.80
2018-08-20T06:23:37.005Z,99825.75
2018-08-20T06:25:20.562Z,99760.96
2018-08-20T06:26:56.103Z,99837.36
2018-08-20T06:28:41.880Z,99894.21
2018-08-20T06:30:23.316Z,99859.09
2018-08-20T06:32:01.207Z,99895.67
2018-08-20T06:33:36.674Z,99781.09
2018-08-20T06:35:13.241Z,99834.76
2018-08-20T06:36:48.647Z,99858.72
2018-08-20T06:38:24.503Z,99942.73
2018-08-20T06:39:59.937Z,99964.97
2018-08-20T06:41:35.243Z,99937.55
2018-08-20T06:43:11.231Z,99914.42
2018-08-20T06:44:47.222Z,99890.46
2018-08-20T06:46:23.544Z,99954.84
2018-08-20T06:48:00.466Z,99977.56
2018-08-20T06:49:36.417Z,99977.18
2018-08-20T06:51:11.730Z,99934.08
2018-08-20T06:52:47.875Z,99917.66
2018-08-20T06:54:23.221Z,99850.06
2018-08-20T06:55:58.879Z,99837.23
2018-08-20T06:57:40.083Z,99831.04
2018-08-20T07:00:09.669Z,99946.53
2018-08-20T07:02:04.291Z,99920.86
2018-08-20T07:03:48.712Z,99884.87
2018-08-20T07:05:24.400Z,99914.67
2018-08-20T07:06:59.656Z,99925.80
2018-08-20T07:08:35.911Z,99914.67
2018-08-20T07:10:14.718Z,99852.53
2018-08-20T07:11:51.075Z,99685.55
2018-08-20T07:13:34.743Z,99696.17
2018-08-20T07:15:17.269Z,99639.42
2018-08-20T07:19:40.357Z,99808.20
2018-08-20T07:21:35.514Z,99934.78
2018-08-20T07:23:49.375Z,99919.23
2018-08-20T07:25:37.203Z,99914.78
2018-08-20T07:27:29.262Z,99841.02
2018-08-20T07:31:38.297Z,99789.16
2018-08-20T07:33:15.533Z,99753.64
2018-08-20T07:34:51.064Z,99601.52
2018-08-20T07:36:27.599Z,99719.08
2018-08-20T07:38:02.795Z,99820.27
2018-08-20T07:39:38.082Z,99876.32
2018-08-20T07:41:13.618Z,99897.19
2018-08-20T07:42:49.506Z,99984.80
2018-08-20T07:44:24.764Z,100003.45
2018-08-20T07:45:59.972Z,99972.84
2018-08-20T07:47:36.481Z,99908.80
2018-08-20T07:49:19.524Z,99879.41
2018-08-20T07:50:56.333Z,99868.81
2018-08-20T07:52:31.550Z,99838.66
2018-08-20T07:54:07.413Z,99803.10
2018-08-20T07:55:42.749Z,99857.41
2018-08-20T07:57:19.064Z,99875.59
2018-08-20T07:58:54.249Z,99881.36
2018-08-20T08:00:31.585Z,99873.47
2018-08-20T08:02:09.052Z,99921.88
2018-08-20T08:03:44.372Z,99924.10
2018-08-20T08:05:20.456Z,99855.22
2018-08-20T08:06:57.222Z,99878.41
2018-08-20T08:08:32.674Z,99929.45
2018-08-20T08:10:11.855Z,99946.85
2018-08-20T08:11:47.209Z,99947.34
2018-08-20T08:13:23.465Z,99947.83
2018-08-20T08:14:59.508Z,99914.47
2018-08-20T08:16:35.640Z,99949.67
2018-08-20T08:18:10.951Z,99987.00
2018-08-20T08:19:50.597Z,99932.24
2018-08-20T08:21:26.326Z,99857.76
2018-08-20T08:23:01.530Z,99839.99
2018-08-20T08:24:37.075Z,99815.55
2018-08-20T08:26:12.736Z,99866.66
2018-08-20T08:27:48.693Z,99877.75
2018-08-20T08:29:24.772Z,99766.69
2018-08-20T08:31:02.066Z,99589.66
2018-08-20T08:32:37.875Z,99636.36
2018-08-20T08:34:13.672Z,99769.89
2018-08-20T08:35:50.795Z,99855.53
2018-08-20T08:37:26.115Z,99915.17
2018-08-20T08:39:03.852Z,99922.72
2018-08-20T08:40:40.240Z,99944.07
2018-08-20T08:42:15.899Z,99890.34
2018-08-20T08:43:51.690Z,99827.76
2018-08-20T08:45:28.714Z,99878.45
2018-08-20T08:47:04.134Z,99961.60
2018-08-20T08:48:41.953Z,99963.37
2018-08-20T08:50:18.200Z,99931.34
2018-08-20T08:51:53.793Z,99917.25
2018-08-20T08:53:30.087Z,99912.70
2018-08-20T08:55:05.803Z,99743.59
2018-08-20T08:56:42.881Z,99717.92
2018-08-20T08:58:18.449Z,99818.23
2018-08-20T08:59:53.623Z,99918.23
2018-08-20T09:01:29.000Z,99926.50
2018-08-20T09:03:04.209Z,99885.27
2018-08-20T09:04:43.287Z,99931.93
2018-08-20T09:06:18.690Z,99940.45
2018-08-20T09:08:04.358Z,99910.69
2018-08-20T09:09:39.632Z,99904.53
2018-08-20T09:11:16.161Z,99897.36
2018-08-20T09:12:53.100Z,99917.47
2018-08-20T09:14:30.473Z,99935.76
2018-08-20T09:16:08.629Z,99964.52
2018-08-20T09:17:44.716Z,99966.37
2018-08-20T09:19:20.812Z,99906.86
2018-08-20T09:20:56.744Z,99777.61
2018-08-20T09:22:32.519Z,99827.83
2018-08-20T09:24:08.683Z,99834.99
2018-08-20T09:25:44.821Z,99878.06
2018-08-20T09:27:20.077Z,99923.86
2018-08-20T09:28:57.019Z,99964.66
2018-08-20T09:30:32.308Z,99971.30
2018-08-20T09:32:08.105Z,99943.41
2018-08-20T09:33:43.329Z,99943.52
2018-08-20T09:35:19.525Z,99954.13
2018-08-20T09:36:54.799Z,99905.33
2018-08-20T09:38:31.380Z,99772.89
2018-08-20T09:40:10.680Z,99725.53
2018-08-20T09:41:46.309Z,99720.70
2018-08-20T09:43:21.548Z,99716.64
2018-08-20T09:44:57.335Z,99743.77
2018-08-20T09:46:32.608Z,99783.73
2018-08-20T09:48:08.410Z,99821.02
2018-08-20T09:49:43.680Z,99876.19
2018-08-20T09:51:18.909Z,99911.38
2018-08-20T09:52:55.098Z,99837.05
2018-08-20T09:54:31.506Z,99847.30
2018-08-20T09:56:08.517Z,99838.92
2018-08-20T09:57:43.838Z,99832.63
2018-08-20T09:59:19.057Z,99835.83
2018-08-20T10:00:54.581Z,99837.19
2018-08-20T10:02:31.544Z,99817.69
2018-08-20T10:04:06.939Z,99786.20
2018-08-20T10:05:42.433Z,99794.23
2018-08-20T10:07:22.067Z,99782.23
2018-08-20T10:09:00.191Z,99840.87
2018-08-20T10:10:38.480Z,99920.00
2018-08-20T10:12:13.928Z,99930.36
2018-08-20T10:13:50.922Z,99926.30
2018-08-20T10:15:30.630Z,99964.06
2018-08-20T10:17:07.150Z,99810.84
2018-08-20T10:18:44.011Z,99783.35
2018-08-20T10:20:20.554Z,99827.77
2018-08-20T10:21:55.835Z,99877.41
2018-08-20T10:23:32.610Z,99774.95
2018-08-20T10:25:08.426Z,99818.14
2018-08-20T10:26:46.816Z,99923.41
2018-08-20T10:28:22.150Z,99999.02
2018-08-20T10:29:58.168Z,100124.86
2018-08-20T10:31:36.067Z,100259.39
2018-08-20T10:33:14.118Z,100279.91
2018-08-20T10:34:50.092Z,100146.34
2018-08-20T10:36:25.319Z,100103.69
2018-08-20T10:38:02.093Z,100217.69
2018-08-20T10:39:39.097Z,100184.29
2018-08-20T10:41:14.301Z,100163.02
2018-08-20T10:42:52.666Z,100287.57
2018-08-20T10:44:29.072Z,100288.92
2018-08-20T10:46:25.756Z,100326.42
2018-08-20T10:48:02.646Z,100422.63
2018-08-20T10:51:11.262Z,100364.75
2018-08-20T10:52:54.735Z,100440.06
2018-08-20T10:54:30.387Z,100433.02
2018-08-20T10:56:06.361Z,100408.98
2018-08-20T10:57:43.303Z,100391.62
2018-08-20T10:59:18.522Z,100169.90
2018-08-20T11:00:56.541Z,100005.23
2018-08-20T11:02:32.814Z,99982.62
2018-08-20T11:04:09.920Z,100145.91
2018-08-20T11:05:45.276Z,100324.00
2018-08-20T11:07:22.109Z,100500.98
2018-08-20T11:08:58.975Z,100649.43
2018-08-20T11:10:34.701Z,100761.55
2018-08-20T11:12:09.971Z,100876.39
2018-08-20T11:13:45.286Z,100769.72
2018-08-20T11:15:23.265Z,100695.53
2018-08-20T11:16:58.797Z,100859.51
2018-08-20T11:18:36.133Z,100963.16
2018-08-20T11:20:15.275Z,100995.46
2018-08-20T11:21:50.965Z,100961.92
2018-08-20T11:23:26.248Z,100959.56
2018-08-20T11:25:01.553Z,100836.78
2018-08-20T11:26:37.543Z,100841.74
2018-08-20T11:28:14.859Z,100871.27
2018-08-20T11:29:51.158Z,100950.83
2018-08-20T11:31:28.482Z,101016.58
2018-08-20T11:33:05.234Z,101079.16
2018-08-20T11:34:41.745Z,101085.00
2018-08-20T11:36:18.523Z,101089.58
2018-08-20T11:37:53.979Z,101128.97
2018-08-20T11:39:33.555Z,101109.21
2018-08-20T11:41:12.173Z,101162.15
2018-08-20T11:42:49.988Z,101261.00
2018-08-20T11:44:27.830Z,101331.00
2018-08-20T11:46:05.519Z,101444.77
2018-08-20T11:47:42.545Z,101493.19
2018-08-20T11:49:22.411Z,101458.31
2018-08-20T11:51:00.177Z,101414.84
2018-08-20T11:52:35.542Z,101392.05
2018-08-20T11:54:15.254Z,101495.16
2018-08-20T11:57:35.604Z,101617.12
2018-08-20T11:59:15.210Z,101738.85
2018-08-20T12:00:52.394Z,101812.91
2018-08-20T12:02:29.972Z,101797.58
2018-08-20T12:04:06.588Z,101837.20
2018-08-20T12:05:42.772Z,101899.73
2018-08-20T12:07:22.874Z,101883.96
2018-08-20T12:09:02.498Z,101907.84
2018-08-20T12:10:43.265Z,101983.34
2018-08-20T12:12:25.135Z,101836.73
2018-08-20T12:14:03.400Z,101582.68
2018-08-20T12:15:40.582Z,101672.41
2018-08-20T12:17:19.960Z,101781.56
2018-08-20T12:18:55.174Z,101838.09
2018-08-20T12:20:32.525Z,101761.38
2018-08-20T12:22:10.049Z,101771.25
2018-08-20T12:23:50.042Z,101928.63
2018-08-20T12:25:25.326Z,102000.51
2018-08-20T12:27:02.303Z,102037.36
2018-08-20T12:28:40.654Z,101989.21
2018-08-20T12:30:21.853Z,101994.19
2018-08-20T12:31:58.166Z,101932.55
2018-08-20T12:33:40.547Z,101993.31
2018-08-20T12:35:20.410Z,102041.38
2018-08-20T12:37:04.221Z,102022.02
2018-08-20T12:40:28.813Z,101980.70
2018-08-20T12:42:07.292Z,101983.83
2018-08-20T12:43:44.529Z,102048.13
2018-08-20T12:45:21.267Z,102112.02
2018-08-20T12:46:56.570Z,102204.20
2018-08-20T12:48:32.011Z,102136.67
2018-08-20T12:50:20.867Z,102152.52
2018-08-20T12:53:27.767Z,102279.90
2018-08-20T12:55:03.165Z,102247.91
2018-08-20T12:56:40.855Z,102193.42
2018-08-20T12:58:18.609Z,102169.97
2018-08-20T12:59:57.612Z,102129.92
2018-08-20T13:01:37.231Z,102035.43
2018-08-20T13:03:22.639Z,102000.83
2018-08-20T13:04:59.698Z,102019.68
2018-08-20T13:06:36.212Z,101943.20
2018-08-20T13:08:14.306Z,101998.09
2018-08-20T13:09:49.642Z,101931.07
2018-08-20T13:11:30.501Z,101894.67
2018-08-20T13:13:06.657Z,101845.92
2018-08-20T13:14:42.199Z,101768.80
2018-08-20T13:16:18.540Z,101633.59
2018-08-20T13:17:55.580Z,101581.54
2018-08-20T13:19:32.568Z,101562.78
2018-08-20T13:21:11.191Z,101569.52
2018-08-20T13:22:46.544Z,101626.37
2018-08-20T13:24:22.468Z,101660.91
2018-08-20T13:25:58.563Z,101620.04
2018-08-20T13:27:36.348Z,101524.57
2018-08-20T13:29:12.073Z,101425.09
2018-08-20T13:30:47.634Z,101261.76
2018-08-20T13:32:24.491Z,101137.42
2018-08-20T13:33:59.842Z,101066.73
2018-08-20T13:35:35.107Z,100937.31
2018-08-20T13:37:13.676Z,100907.03
2018-08-20T13:38:49.713Z,100877.98
2018-08-20T13:40:25.515Z,100894.00
2018-08-20T13:42:02.181Z,100922.56
2018-08-20T13:43:38.086Z,100820.29
2018-08-20T13:45:17.415Z,100809.11
2018-08-20T13:47:03.870Z,100765.34
2018-08-20T13:48:45.479Z,100718.37
2018-08-20T13:50:29.471Z,100795.24
2018-08-20T13:52:14.163Z,100843.49
2018-08-20T13:53:57.829Z,100828.23
2018-08-20T13:55:33.329Z,100808.05
2018-08-20T13:57:08.680Z,100817.87
2018-08-20T13:58:44.837Z,100714.38
2018-08-20T14:00:22.390Z,100802.70
2018-08-20T14:01:58.522Z,100837.56
2018-08-20T14:03:35.379Z,100788.83
2018-08-20T14:05:11.723Z,100779.50
2018-08-20T14:06:47.564Z,100778.14
2018-08-20T14:08:24.553Z,100816.59
2018-08-20T14:10:02.168Z,100890.30
2018-08-20T14:11:38.964Z,100948.31
2018-08-20T14:13:16.041Z,101021.71
2018-08-20T14:14:51.809Z,101074.89
2018-08-20T14:16:31.110Z,101125.94
2018-08-20T14:18:08.878Z,101142.08
2018-08-20T14:19:52.677Z,101156.30
2018-08-20T14:21:28.484Z,101187.23
2018-08-20T14:23:07.320Z,101108.42
2018-08-20T14:24:42.604Z,101099.49
2018-08-20T14:26:18.874Z,101162.23
2018-08-20T14:27:56.273Z,101193.17
2018-08-20T14:29:35.183Z,101216.30
2018-08-20T14:31:20.383Z,101228.47
2018-08-20T14:32:59.235Z,101263.91
2018-08-20T14:34:40.762Z,101222.14
2018-08-20T14:36:20.387Z,101192.20
2018-08-20T14:37:56.595Z,101211.45
2018-08-20T14:39:32.576Z,101194.41
2018-08-20T14:41:15.267Z,101183.73
2018-08-20T14:42:51.192Z,101148.80
2018-08-20T14:44:28.395Z,101161.75
2018-08-20T14:46:20.156Z,101145.67
2018-08-20T14:48:06.832Z,101055.27
2018-08-20T14:49:49.943Z,101013.24
2018-08-20T14:51:25.622Z,101052.53
2018-08-20T14:53:04.795Z,101006.05
2018-08-20T14:54:40.842Z,101041.83
2018-08-20T14:56:16.495Z,101084.82
2018-08-20T14:58:02.215Z,101122.83
2018-08-20T14:59:38.249Z,101009.16
2018-08-20T15:01:13.876Z,101040.56
2018-08-20T15:02:49.493Z,101107.18
2018-08-20T15:06:05.794Z,101153.27
2018-08-20T15:07:43.242Z,101201.13
2018-08-20T15:09:28.151Z,101225.27
2018-08-20T15:11:05.552Z,101254.85
2018-08-20T15:12:41.537Z,101279.51
2018-08-20T15:14:20.675Z,101277.75
2018-08-20T15:15:57.779Z,101279.99
2018-08-20T15:17:35.129Z,101247.77
2018-08-20T15:19:13.447Z,101257.97
2018-08-20T15:20:49.913Z,101258.45
2018-08-20T15:22:28.718Z,101239.20
2018-08-20T15:24:05.645Z,101193.92
2018-08-20T15:25:41.136Z,101099.01
2018-08-20T15:27:20.667Z,101099.49
2018-08-20T15:28:55.945Z,101119.13
2018-08-20T15:30:35.902Z,101177.40
2018-08-20T15:32:12.373Z,101218.18
2018-08-20T15:33:47.631Z,101211.94
2018-08-20T15:35:23.763Z,101181.00
2018-08-20T15:37:00.081Z,101152.30
2018-08-20T15:38:37.572Z,101169.31
2018-08-20T15:40:13.588Z,101215.45
2018-08-20T15:41:57.636Z,101245.40
2018-08-20T15:43:40.564Z,101269.57
2018-08-20T15:45:21.686Z,101296.34
2018-08-20T15:46:58.257Z,101335.88
2018-08-20T15:48:35.377Z,101341.25
2018-08-20T15:50:13.429Z,101283.81
2018-08-20T15:52:04.734Z,101250.28
2018-08-20T15:53:42.735Z,101220.20
2018-08-20T15:55:19.027Z,101201.83
2018-08-20T15:56:56.463Z,101180.91
2018-08-20T15:58:34.280Z,101204.91
2018-08-20T16:00:20.682Z,101218.05
2018-08-20T16:01:58.562Z,101285.17
2018-08-20T16:03:34.038Z,101254.27
2018-08-20T16:05:11.567Z,101244.73
2018-08-20T16:06:50.230Z,101259.12
2018-08-20T16:08:28.143Z,101245.22
2018-08-20T16:10:06.204Z,101284.66
2018-08-20T16:11:43.255Z,101315.13
2018-08-20T16:13:21.608Z,101287.38
2018-08-20T16:15:01.470Z,101306.55
2018-08-20T16:16:41.235Z,101306.55
2018-08-20T16:18:17.254Z,101298.37
2018-08-20T16:19:54.185Z,101298.98
2018-08-20T16:21:33.231Z,101233.53
2018-08-20T16:23:18.340Z,101224.59
2018-08-20T16:24:54.994Z,101191.90
2018-08-20T16:26:33.863Z,101116.19
2018-08-20T16:28:11.073Z,101079.45
2018-08-20T16:29:49.116Z,101035.58
2018-08-20T16:31:34.886Z,101010.11
2018-08-20T16:33:14.428Z,101016.73
2018-08-20T16:34:54.594Z,101029.65
2018-08-20T16:36:36.174Z,101044.05
2018-08-20T16:38:22.716Z,101062.81
2018-08-20T16:40:10.039Z,101048.05
2018-08-20T16:41:45.452Z,101050.25
2018-08-20T16:43:27.206Z,101035.09
2018-08-20T16:45:06.991Z,101015.86
2018-08-20T16:46:52.985Z,100965.33
2018-08-20T16:48:30.168Z,100982.32
2018-08-20T16:50:17.666Z,101002.34
2018-08-20T16:51:57.803Z,101029.26
2018-08-20T16:53:43.497Z,101052.00
2018-08-20T16:55:23.521Z,101052.00
2018-08-20T16:57:09.670Z,101069.31
2018-08-20T16:58:48.515Z,101068.08
2018-08-20T17:00:29.111Z,101038.13
2018-08-20T17:02:11.322Z,101034.61
2018-08-20T17:03:56.204Z,101103.75
2018-08-20T17:05:41.601Z,101119.88
2018-08-20T17:07:20.669Z,101168.73
2018-08-20T17:08:59.888Z,101218.93
2018-08-20T17:10:36.549Z,101187.11
2018-08-20T17:12:14.074Z,101128.92
2018-08-20T17:13:51.652Z,101168.34
2018-08-20T17:15:44.641Z,101240.86
2018-08-20T17:17:25.818Z,101292.83
2018-08-20T17:19:07.461Z,101331.67
2018-08-20T17:20:58.399Z,101323.22
2018-08-20T17:22:39.953Z,101295.95
2018-08-20T17:24:26.542Z,101162.89
2018-08-20T17:26:03.643Z,101203.16
2018-08-20T17:27:42.855Z,101273.56
2018-08-20T17:29:19.578Z,101265.88
2018-08-20T17:31:03.652Z,101190.13
2018-08-20T17:32:40.687Z,101228.68
2018-08-20T17:34:17.776Z,101251.58
2018-08-20T17:35:57.392Z,101281.05
2018-08-20T17:37:35.799Z,101293.53
2018-08-20T17:39:14.337Z,101316.41
2018-08-20T17:40:53.702Z,101285.92
2018-08-20T17:42:31.258Z,101288.17
2018-08-20T17:44:08.533Z,101298.98
2018-08-20T17:45:44.651Z,101319.13
2018-08-20T17:47:25.847Z,101333.34
2018-08-20T17:49:01.907Z,101311.92
2018-08-20T17:50:45.606Z,101272.48
2018-08-20T17:52:23.551Z,101241.03
2018-08-20T17:54:00.567Z,101246.48
2018-08-20T17:55:37.756Z,101291.16
2018-08-20T17:57:14.224Z,101316.80
2018-08-20T17:59:02.550Z,101277.35
2018-08-20T18:00:50.441Z,101348.16
2018-08-20T18:02:30.728Z,101312.22
2018-08-20T18:04:08.448Z,101281.84
2018-08-20T18:05:51.000Z,101249.12
2018-08-20T18:07:31.592Z,101289.44
2018-08-20T18:09:16.910Z,101271.90
2018-08-20T18:10:59.686Z,101309.09
2018-08-20T18:12:50.981Z,101264.69
2018-08-20T18:14:53.981Z,101223.53
2018-08-20T18:16:55.846Z,101241.34
2018-08-20T18:18:33.397Z,100979.58
2018-08-20T18:20:09.331Z,100955.87
2018-08-20T18:21:45.201Z,100960.83
2018-08-20T18:23:22.932Z,100927.69
2018-08-20T18:24:58.804Z,100803.39
2018-08-20T18:26:43.674Z,100895.48
2018-08-20T18:28:21.717Z,101082.73
2018-08-20T18:29:57.271Z,101078.25
2018-08-20T18:31:33.465Z,101129.97
2018-08-20T18:33:10.945Z,101148.86
2018-08-20T18:34:49.037Z,101208.54
2018-08-20T18:36:28.500Z,101281.44
2018-08-20T18:38:08.405Z,101292.13
2018-08-20T18:39:50.681Z,101262.75
2018-08-20T18:42:21.427Z,101264.41
2018-08-20T18:44:00.232Z,101206.30
2018-08-20T18:45:36.048Z,101229.95
2018-08-20T18:47:16.929Z,101251.45
2018-08-20T18:48:53.599Z,101281.44
2018-08-20T18:50:29.963Z,101341.91
2018-08-20T18:52:11.510Z,101326.21
2018-08-20T18:53:56.329Z,101298.37
2018-08-20T18:55:34.987Z,101316.40
2018-08-20T18:57:10.797Z,101312.70
2018-08-20T18:58:51.657Z,101299.73
2018-08-20T19:00:31.238Z,101288.04
2018-08-20T19:02:12.050Z,101279.98
2018-08-20T19:04:07.352Z,101276.47
2018-08-20T19:06:02.925Z,101248.14